sensor_id;sensor_type;location;lat;lon;timestamp;temperature;humidity
31765;DHT22;18338;53.240;8.798;2023-06-22T00:00:57;16.30;99.90
31765;DHT22;18338;53.240;8.798;2023-06-22T00:03:25;16.40;99.90
31765;DHT22;18338;53.240;8.798;2023-06-22T00:05:52;16.40;99.90
31765;DHT22;18338;53.240;8.798;2023-06-22T00:08:19;16.50;99.90
31765;DHT22;18338;53.240;8.798;2023-06-22T00:10:46;16.50;99.90
31765;DHT22;18338;53.240;8.798;2023-06-22T00:13:13;16.50;99.90
31765;DHT22;18338;53.240;8.798;2023-06-22T00:15:41;16.50;99.90
31765;DHT22;18338;53.240;8.798;2023-06-22T00:18:09;16.50;99.90
31765;DHT22;18338;53.240;8.798;2023-06-22T00:20:36;16.50;99.90
31765;DHT22;18338;53.240;8.798;2023-06-22T00:23:05;16.60;99.90
31765;DHT22;18338;53.240;8.798;2023-06-22T00:25:36;16.60;99.90
31765;DHT22;18338;53.240;8.798;2023-06-22T00:28:04;16.70;99.90
31765;DHT22;18338;53.240;8.798;2023-06-22T00:30:31;16.70;99.90
31765;DHT22;18338;53.240;8.798;2023-06-22T00:32:58;16.70;99.90
31765;DHT22;18338;53.240;8.798;2023-06-22T00:35:26;16.70;99.90
31765;DHT22;18338;53.240;8.798;2023-06-22T00:37:56;16.70;99.90
31765;DHT22;18338;53.240;8.798;2023-06-22T00:40:28;16.70;99.90
31765;DHT22;18338;53.240;8.798;2023-06-22T00:42:55;16.70;99.90
31765;DHT22;18338;53.240;8.798;2023-06-22T00:45:24;16.70;99.90
31765;DHT22;18338;53.240;8.798;2023-06-22T00:47:56;16.70;99.90
31765;DHT22;18338;53.240;8.798;2023-06-22T00:50:26;16.70;99.90
31765;DHT22;18338;53.240;8.798;2023-06-22T00:52:58;16.60;99.90
31765;DHT22;18338;53.240;8.798;2023-06-22T00:55:26;16.50;99.90
31765;DHT22;18338;53.240;8.798;2023-06-22T00:57:54;16.50;99.90
31765;DHT22;18338;53.240;8.798;2023-06-22T01:00:24;16.50;99.90
31765;DHT22;18338;53.240;8.798;2023-06-22T01:02:52;16.40;99.90
31765;DHT22;18338;53.240;8.798;2023-06-22T01:05:21;16.40;99.90
31765;DHT22;18338;53.240;8.798;2023-06-22T01:10:50;16.40;99.90
31765;DHT22;18338;53.240;8.798;2023-06-22T01:13:30;16.30;99.90
31765;DHT22;18338;53.240;8.798;2023-06-22T01:16:09;16.30;99.90
31765;DHT22;18338;53.240;8.798;2023-06-22T01:18:41;16.20;99.90
31765;DHT22;18338;53.240;8.798;2023-06-22T01:21:13;16.20;99.90
31765;DHT22;18338;53.240;8.798;2023-06-22T01:24:07;16.20;99.90
31765;DHT22;18338;53.240;8.798;2023-06-22T01:26:43;16.20;99.90
31765;DHT22;18338;53.240;8.798;2023-06-22T01:29:16;16.20;99.90
31765;DHT22;18338;53.240;8.798;2023-06-22T01:31:44;16.10;99.90
31765;DHT22;18338;53.240;8.798;2023-06-22T01:34:12;16.10;99.90
31765;DHT22;18338;53.240;8.798;2023-06-22T01:36:40;16.00;99.90
31765;DHT22;18338;53.240;8.798;2023-06-22T01:39:08;15.90;99.90
31765;DHT22;18338;53.240;8.798;2023-06-22T01:41:37;15.80;99.90
31765;DHT22;18338;53.240;8.798;2023-06-22T01:44:05;15.80;99.90
31765;DHT22;18338;53.240;8.798;2023-06-22T01:46:34;15.80;99.90
31765;DHT22;18338;53.240;8.798;2023-06-22T01:49:02;15.70;99.90
31765;DHT22;18338;53.240;8.798;2023-06-22T01:51:30;15.70;99.90
31765;DHT22;18338;53.240;8.798;2023-06-22T01:53:57;15.70;99.90
31765;DHT22;18338;53.240;8.798;2023-06-22T01:56:26;15.70;99.90
31765;DHT22;18338;53.240;8.798;2023-06-22T01:59:17;15.60;99.90
31765;DHT22;18338;53.240;8.798;2023-06-22T02:01:56;15.60;99.90
31765;DHT22;18338;53.240;8.798;2023-06-22T02:04:27;15.50;99.90
31765;DHT22;18338;53.240;8.798;2023-06-22T02:06:57;15.50;99.90
31765;DHT22;18338;53.240;8.798;2023-06-22T02:09:28;15.50;99.90
31765;DHT22;18338;53.240;8.798;2023-06-22T02:11:56;15.50;99.90
31765;DHT22;18338;53.240;8.798;2023-06-22T02:14:24;15.60;99.90
31765;DHT22;18338;53.240;8.798;2023-06-22T02:16:51;15.50;99.90
31765;DHT22;18338;53.240;8.798;2023-06-22T02:19:23;15.50;99.90
31765;DHT22;18338;53.240;8.798;2023-06-22T02:21:50;15.50;99.90
31765;DHT22;18338;53.240;8.798;2023-06-22T02:24:17;15.50;99.90
31765;DHT22;18338;53.240;8.798;2023-06-22T02:26:43;15.50;99.90
31765;DHT22;18338;53.240;8.798;2023-06-22T02:29:11;15.50;99.90
31765;DHT22;18338;53.240;8.798;2023-06-22T02:31:38;15.40;99.90
31765;DHT22;18338;53.240;8.798;2023-06-22T02:34:06;15.40;99.90
31765;DHT22;18338;53.240;8.798;2023-06-22T02:36:33;15.30;99.90
31765;DHT22;18338;53.240;8.798;2023-06-22T02:39:00;15.30;99.90
31765;DHT22;18338;53.240;8.798;2023-06-22T02:41:28;15.30;99.90
31765;DHT22;18338;53.240;8.798;2023-06-22T02:43:54;15.20;99.90
31765;DHT22;18338;53.240;8.798;2023-06-22T02:46:21;15.20;99.90
31765;DHT22;18338;53.240;8.798;2023-06-22T02:48:48;15.20;99.90
31765;DHT22;18338;53.240;8.798;2023-06-22T02:51:15;15.10;99.90
31765;DHT22;18338;53.240;8.798;2023-06-22T02:53:42;15.10;99.90
31765;DHT22;18338;53.240;8.798;2023-06-22T02:56:11;15.00;99.90
31765;DHT22;18338;53.240;8.798;2023-06-22T02:58:39;15.00;99.90
31765;DHT22;18338;53.240;8.798;2023-06-22T03:01:06;15.10;99.90
31765;DHT22;18338;53.240;8.798;2023-06-22T03:03:33;15.00;99.90
31765;DHT22;18338;53.240;8.798;2023-06-22T03:06:00;15.00;99.90
31765;DHT22;18338;53.240;8.798;2023-06-22T03:08:28;15.00;99.90
31765;DHT22;18338;53.240;8.798;2023-06-22T03:10:55;15.10;99.90
31765;DHT22;18338;53.240;8.798;2023-06-22T03:13:23;15.10;99.90
31765;DHT22;18338;53.240;8.798;2023-06-22T03:15:50;15.10;99.90
31765;DHT22;18338;53.240;8.798;2023-06-22T03:18:17;15.20;99.90
31765;DHT22;18338;53.240;8.798;2023-06-22T03:20:43;15.20;99.90
31765;DHT22;18338;53.240;8.798;2023-06-22T03:23:10;15.20;99.90
31765;DHT22;18338;53.240;8.798;2023-06-22T03:25:37;15.30;99.90
31765;DHT22;18338;53.240;8.798;2023-06-22T03:28:04;15.40;99.90
31765;DHT22;18338;53.240;8.798;2023-06-22T03:30:30;15.40;99.90
31765;DHT22;18338;53.240;8.798;2023-06-22T03:32:57;15.50;99.90
31765;DHT22;18338;53.240;8.798;2023-06-22T03:35:24;15.50;99.90
31765;DHT22;18338;53.240;8.798;2023-06-22T03:37:51;15.60;99.90
31765;DHT22;18338;53.240;8.798;2023-06-22T03:40:17;15.70;99.90
31765;DHT22;18338;53.240;8.798;2023-06-22T03:42:45;15.80;99.90
31765;DHT22;18338;53.240;8.798;2023-06-22T03:45:12;15.80;99.90
31765;DHT22;18338;53.240;8.798;2023-06-22T03:47:38;15.90;99.90
31765;DHT22;18338;53.240;8.798;2023-06-22T03:50:06;15.90;99.90
31765;DHT22;18338;53.240;8.798;2023-06-22T03:52:33;15.90;99.90
31765;DHT22;18338;53.240;8.798;2023-06-22T03:54:59;16.00;99.90
31765;DHT22;18338;53.240;8.798;2023-06-22T03:57:26;16.10;99.90
31765;DHT22;18338;53.240;8.798;2023-06-22T03:59:56;16.10;99.90
31765;DHT22;18338;53.240;8.798;2023-06-22T04:02:23;16.20;99.90
31765;DHT22;18338;53.240;8.798;2023-06-22T04:04:50;16.30;99.90
31765;DHT22;18338;53.240;8.798;2023-06-22T04:07:17;16.30;99.90
31765;DHT22;18338;53.240;8.798;2023-06-22T04:09:44;16.40;99.90
31765;DHT22;18338;53.240;8.798;2023-06-22T04:12:11;16.50;99.90
31765;DHT22;18338;53.240;8.798;2023-06-22T04:14:37;16.60;99.90
31765;DHT22;18338;53.240;8.798;2023-06-22T04:17:05;16.70;99.90
31765;DHT22;18338;53.240;8.798;2023-06-22T04:19:31;16.80;99.90
31765;DHT22;18338;53.240;8.798;2023-06-22T04:21:58;16.90;99.90
31765;DHT22;18338;53.240;8.798;2023-06-22T04:24:25;16.90;99.90
31765;DHT22;18338;53.240;8.798;2023-06-22T04:26:52;17.00;99.90
31765;DHT22;18338;53.240;8.798;2023-06-22T04:29:21;17.10;99.90
31765;DHT22;18338;53.240;8.798;2023-06-22T04:31:57;17.20;99.90
31765;DHT22;18338;53.240;8.798;2023-06-22T04:34:25;17.30;99.90
31765;DHT22;18338;53.240;8.798;2023-06-22T04:36:55;17.40;99.90
31765;DHT22;18338;53.240;8.798;2023-06-22T04:39:21;17.40;99.90
31765;DHT22;18338;53.240;8.798;2023-06-22T04:41:48;17.60;99.90
31765;DHT22;18338;53.240;8.798;2023-06-22T04:44:17;17.70;99.90
31765;DHT22;18338;53.240;8.798;2023-06-22T04:46:51;17.80;99.90
31765;DHT22;18338;53.240;8.798;2023-06-22T04:49:27;17.90;99.90
31765;DHT22;18338;53.240;8.798;2023-06-22T04:52:01;17.90;99.90
31765;DHT22;18338;53.240;8.798;2023-06-22T04:54:27;18.10;99.90
31765;DHT22;18338;53.240;8.798;2023-06-22T04:56:54;18.20;99.90
31765;DHT22;18338;53.240;8.798;2023-06-22T04:59:28;18.20;99.90
31765;DHT22;18338;53.240;8.798;2023-06-22T05:02:00;18.30;99.90
31765;DHT22;18338;53.240;8.798;2023-06-22T05:04:28;18.30;99.90
31765;DHT22;18338;53.240;8.798;2023-06-22T05:06:59;18.40;99.90
31765;DHT22;18338;53.240;8.798;2023-06-22T05:09:26;18.50;99.90
31765;DHT22;18338;53.240;8.798;2023-06-22T05:11:53;18.60;99.90
31765;DHT22;18338;53.240;8.798;2023-06-22T05:14:20;18.70;99.90
31765;DHT22;18338;53.240;8.798;2023-06-22T05:16:46;18.80;99.90
31765;DHT22;18338;53.240;8.798;2023-06-22T05:19:13;18.90;99.90
31765;DHT22;18338;53.240;8.798;2023-06-22T05:21:40;19.00;99.90
31765;DHT22;18338;53.240;8.798;2023-06-22T05:24:07;19.20;99.90
31765;DHT22;18338;53.240;8.798;2023-06-22T05:26:35;19.40;99.90
31765;DHT22;18338;53.240;8.798;2023-06-22T05:29:03;19.50;99.90
31765;DHT22;18338;53.240;8.798;2023-06-22T05:31:29;19.70;99.90
31765;DHT22;18338;53.240;8.798;2023-06-22T05:33:57;19.70;99.90
31765;DHT22;18338;53.240;8.798;2023-06-22T05:36:24;19.90;99.90
31765;DHT22;18338;53.240;8.798;2023-06-22T05:38:52;20.00;99.90
31765;DHT22;18338;53.240;8.798;2023-06-22T05:41:19;20.10;99.90
31765;DHT22;18338;53.240;8.798;2023-06-22T05:43:46;20.20;99.90
31765;DHT22;18338;53.240;8.798;2023-06-22T05:46:13;20.20;99.90
31765;DHT22;18338;53.240;8.798;2023-06-22T05:48:40;20.10;99.90
31765;DHT22;18338;53.240;8.798;2023-06-22T05:51:06;20.00;99.90
31765;DHT22;18338;53.240;8.798;2023-06-22T05:53:33;19.90;99.90
31765;DHT22;18338;53.240;8.798;2023-06-22T05:56:00;19.80;99.90
31765;DHT22;18338;53.240;8.798;2023-06-22T05:58:26;19.70;99.90
31765;DHT22;18338;53.240;8.798;2023-06-22T06:00:53;19.60;99.90
31765;DHT22;18338;53.240;8.798;2023-06-22T06:03:20;19.60;99.90
31765;DHT22;18338;53.240;8.798;2023-06-22T06:05:47;19.50;99.90
31765;DHT22;18338;53.240;8.798;2023-06-22T06:08:14;19.50;99.90
31765;DHT22;18338;53.240;8.798;2023-06-22T06:10:41;19.50;99.90
31765;DHT22;18338;53.240;8.798;2023-06-22T06:13:07;19.40;99.90
31765;DHT22;18338;53.240;8.798;2023-06-22T06:15:35;19.30;99.90
31765;DHT22;18338;53.240;8.798;2023-06-22T06:18:01;19.30;99.90
31765;DHT22;18338;53.240;8.798;2023-06-22T06:20:32;19.40;99.90
31765;DHT22;18338;53.240;8.798;2023-06-22T06:22:59;19.60;99.90
31765;DHT22;18338;53.240;8.798;2023-06-22T06:25:26;19.70;99.90
31765;DHT22;18338;53.240;8.798;2023-06-22T06:27:53;19.80;99.90
31765;DHT22;18338;53.240;8.798;2023-06-22T06:30:21;20.00;99.90
31765;DHT22;18338;53.240;8.798;2023-06-22T06:32:49;20.10;99.90
31765;DHT22;18338;53.240;8.798;2023-06-22T06:35:17;20.30;99.90
31765;DHT22;18338;53.240;8.798;2023-06-22T06:37:47;20.40;99.90
31765;DHT22;18338;53.240;8.798;2023-06-22T06:40:15;20.70;99.90
31765;DHT22;18338;53.240;8.798;2023-06-22T06:42:45;20.90;99.90
31765;DHT22;18338;53.240;8.798;2023-06-22T06:45:14;20.90;99.90
31765;DHT22;18338;53.240;8.798;2023-06-22T06:47:41;21.10;99.90
31765;DHT22;18338;53.240;8.798;2023-06-22T06:50:08;21.20;99.90
31765;DHT22;18338;53.240;8.798;2023-06-22T06:52:36;21.30;99.90
31765;DHT22;18338;53.240;8.798;2023-06-22T06:55:05;21.50;99.90
31765;DHT22;18338;53.240;8.798;2023-06-22T06:57:38;21.70;99.90
31765;DHT22;18338;53.240;8.798;2023-06-22T07:00:09;21.70;99.90
31765;DHT22;18338;53.240;8.798;2023-06-22T07:02:39;21.90;99.90
31765;DHT22;18338;53.240;8.798;2023-06-22T07:05:07;22.00;99.90
31765;DHT22;18338;53.240;8.798;2023-06-22T07:07:34;22.10;99.90
31765;DHT22;18338;53.240;8.798;2023-06-22T07:10:05;22.20;99.90
31765;DHT22;18338;53.240;8.798;2023-06-22T07:12:33;22.40;99.90
31765;DHT22;18338;53.240;8.798;2023-06-22T07:15:07;22.50;99.90
31765;DHT22;18338;53.240;8.798;2023-06-22T07:17:36;22.80;99.90
31765;DHT22;18338;53.240;8.798;2023-06-22T07:20:04;22.80;99.90
31765;DHT22;18338;53.240;8.798;2023-06-22T07:22:40;23.10;99.90
31765;DHT22;18338;53.240;8.798;2023-06-22T07:25:07;23.20;99.90
31765;DHT22;18338;53.240;8.798;2023-06-22T07:30:12;23.60;99.90
31765;DHT22;18338;53.240;8.798;2023-06-22T07:32:40;23.60;99.90
31765;DHT22;18338;53.240;8.798;2023-06-22T07:35:07;23.80;99.90
31765;DHT22;18338;53.240;8.798;2023-06-22T07:37:33;24.00;99.90
31765;DHT22;18338;53.240;8.798;2023-06-22T07:40:01;24.00;99.90
31765;DHT22;18338;53.240;8.798;2023-06-22T07:42:32;24.00;99.90
31765;DHT22;18338;53.240;8.798;2023-06-22T07:45:03;24.10;99.90
31765;DHT22;18338;53.240;8.798;2023-06-22T07:47:30;24.40;99.90
31765;DHT22;18338;53.240;8.798;2023-06-22T07:49:58;24.60;99.90
31765;DHT22;18338;53.240;8.798;2023-06-22T07:52:30;24.70;99.90
31765;DHT22;18338;53.240;8.798;2023-06-22T07:54:57;24.90;99.90
31765;DHT22;18338;53.240;8.798;2023-06-22T07:57:23;25.00;99.90
31765;DHT22;18338;53.240;8.798;2023-06-22T08:00:03;25.10;99.90
31765;DHT22;18338;53.240;8.798;2023-06-22T08:02:45;25.20;99.90
31765;DHT22;18338;53.240;8.798;2023-06-22T08:05:14;25.30;99.90
31765;DHT22;18338;53.240;8.798;2023-06-22T08:08:01;25.40;99.90
31765;DHT22;18338;53.240;8.798;2023-06-22T08:10:27;25.60;99.90
31765;DHT22;18338;53.240;8.798;2023-06-22T08:12:54;26.00;99.90
31765;DHT22;18338;53.240;8.798;2023-06-22T08:15:21;27.70;99.90
31765;DHT22;18338;53.240;8.798;2023-06-22T08:17:48;29.90;99.90
31765;DHT22;18338;53.240;8.798;2023-06-22T08:20:15;31.70;99.10
31765;DHT22;18338;53.240;8.798;2023-06-22T08:22:42;32.90;93.40
31765;DHT22;18338;53.240;8.798;2023-06-22T08:25:11;33.20;91.50
31765;DHT22;18338;53.240;8.798;2023-06-22T08:27:38;33.80;92.00
31765;DHT22;18338;53.240;8.798;2023-06-22T08:30:06;34.70;88.40
31765;DHT22;18338;53.240;8.798;2023-06-22T08:32:33;34.80;85.70
31765;DHT22;18338;53.240;8.798;2023-06-22T08:35:00;35.40;83.70
31765;DHT22;18338;53.240;8.798;2023-06-22T08:37:28;35.80;79.80
31765;DHT22;18338;53.240;8.798;2023-06-22T08:40:03;35.80;78.20
31765;DHT22;18338;53.240;8.798;2023-06-22T08:42:39;36.00;79.20
31765;DHT22;18338;53.240;8.798;2023-06-22T08:45:07;36.30;75.30
31765;DHT22;18338;53.240;8.798;2023-06-22T08:47:34;36.60;75.80
31765;DHT22;18338;53.240;8.798;2023-06-22T08:50:01;36.40;74.30
31765;DHT22;18338;53.240;8.798;2023-06-22T08:52:30;36.70;73.70
31765;DHT22;18338;53.240;8.798;2023-06-22T08:54:57;35.30;73.80
31765;DHT22;18338;53.240;8.798;2023-06-22T08:57:29;35.80;75.80
31765;DHT22;18338;53.240;8.798;2023-06-22T08:59:56;34.50;76.80
31765;DHT22;18338;53.240;8.798;2023-06-22T09:02:28;34.90;77.30
31765;DHT22;18338;53.240;8.798;2023-06-22T09:04:58;35.50;79.50
31765;DHT22;18338;53.240;8.798;2023-06-22T09:07:25;36.10;77.30
31765;DHT22;18338;53.240;8.798;2023-06-22T09:09:53;36.00;76.20
31765;DHT22;18338;53.240;8.798;2023-06-22T09:12:20;36.70;74.20
31765;DHT22;18338;53.240;8.798;2023-06-22T09:14:49;36.90;75.00
31765;DHT22;18338;53.240;8.798;2023-06-22T09:17:16;36.20;75.60
31765;DHT22;18338;53.240;8.798;2023-06-22T09:19:42;36.90;72.80
31765;DHT22;18338;53.240;8.798;2023-06-22T09:22:09;37.70;72.20
31765;DHT22;18338;53.240;8.798;2023-06-22T09:24:36;38.40;69.50
31765;DHT22;18338;53.240;8.798;2023-06-22T09:27:03;38.90;70.50
31765;DHT22;18338;53.240;8.798;2023-06-22T09:29:30;39.70;67.60
31765;DHT22;18338;53.240;8.798;2023-06-22T09:32:00;40.40;67.00
31765;DHT22;18338;53.240;8.798;2023-06-22T09:34:28;40.60;66.20
31765;DHT22;18338;53.240;8.798;2023-06-22T09:36:55;39.60;66.70
31765;DHT22;18338;53.240;8.798;2023-06-22T09:39:23;40.60;65.60
31765;DHT22;18338;53.240;8.798;2023-06-22T09:41:50;41.20;61.60
31765;DHT22;18338;53.240;8.798;2023-06-22T09:44:17;41.10;61.60
31765;DHT22;18338;53.240;8.798;2023-06-22T09:46:44;41.60;62.30
31765;DHT22;18338;53.240;8.798;2023-06-22T09:49:11;41.60;62.90
31765;DHT22;18338;53.240;8.798;2023-06-22T09:51:38;42.00;61.20
31765;DHT22;18338;53.240;8.798;2023-06-22T09:54:06;42.00;60.60
31765;DHT22;18338;53.240;8.798;2023-06-22T09:56:33;41.80;59.50
31765;DHT22;18338;53.240;8.798;2023-06-22T09:59:00;41.80;58.40
31765;DHT22;18338;53.240;8.798;2023-06-22T10:01:43;42.30;59.30
31765;DHT22;18338;53.240;8.798;2023-06-22T10:04:11;41.60;58.70
31765;DHT22;18338;53.240;8.798;2023-06-22T10:07:06;40.90;60.90
31765;DHT22;18338;53.240;8.798;2023-06-22T10:09:32;41.00;62.80
31765;DHT22;18338;53.240;8.798;2023-06-22T10:11:59;41.10;61.30
31765;DHT22;18338;53.240;8.798;2023-06-22T10:14:26;41.20;61.30
31765;DHT22;18338;53.240;8.798;2023-06-22T10:16:53;41.60;59.70
31765;DHT22;18338;53.240;8.798;2023-06-22T10:19:22;41.80;58.70
31765;DHT22;18338;53.240;8.798;2023-06-22T10:21:49;41.20;60.50
31765;DHT22;18338;53.240;8.798;2023-06-22T10:24:16;41.50;60.00
31765;DHT22;18338;53.240;8.798;2023-06-22T10:26:42;42.00;59.40
31765;DHT22;18338;53.240;8.798;2023-06-22T10:29:09;42.60;60.20
31765;DHT22;18338;53.240;8.798;2023-06-22T10:31:43;43.20;59.70
31765;DHT22;18338;53.240;8.798;2023-06-22T10:34:10;43.20;59.10
31765;DHT22;18338;53.240;8.798;2023-06-22T10:36:36;43.00;58.90
31765;DHT22;18338;53.240;8.798;2023-06-22T10:39:03;43.70;57.60
31765;DHT22;18338;53.240;8.798;2023-06-22T10:41:30;43.30;57.20
31765;DHT22;18338;53.240;8.798;2023-06-22T10:43:57;43.00;57.80
31765;DHT22;18338;53.240;8.798;2023-06-22T10:46:25;42.80;57.70
31765;DHT22;18338;53.240;8.798;2023-06-22T10:48:54;42.60;57.80
31765;DHT22;18338;53.240;8.798;2023-06-22T10:51:23;42.90;58.90
31765;DHT22;18338;53.240;8.798;2023-06-22T10:53:50;43.30;58.90
31765;DHT22;18338;53.240;8.798;2023-06-22T10:56:18;42.70;58.50
31765;DHT22;18338;53.240;8.798;2023-06-22T10:58:45;42.70;59.80
31765;DHT22;18338;53.240;8.798;2023-06-22T11:01:12;43.80;57.30
31765;DHT22;18338;53.240;8.798;2023-06-22T11:03:59;44.40;58.10
31765;DHT22;18338;53.240;8.798;2023-06-22T11:06:26;44.30;58.40
31765;DHT22;18338;53.240;8.798;2023-06-22T11:08:53;44.80;57.00
31765;DHT22;18338;53.240;8.798;2023-06-22T11:11:37;45.10;56.60
31765;DHT22;18338;53.240;8.798;2023-06-22T11:14:04;44.00;56.80
31765;DHT22;18338;53.240;8.798;2023-06-22T11:16:31;42.60;58.00
31765;DHT22;18338;53.240;8.798;2023-06-22T11:18:58;41.40;58.90
31765;DHT22;18338;53.240;8.798;2023-06-22T11:21:25;40.60;59.80
31765;DHT22;18338;53.240;8.798;2023-06-22T11:23:51;40.60;63.20
31765;DHT22;18338;53.240;8.798;2023-06-22T11:26:18;41.30;62.70
31765;DHT22;18338;53.240;8.798;2023-06-22T11:28:45;42.10;58.90
31765;DHT22;18338;53.240;8.798;2023-06-22T11:31:12;42.60;58.30
31765;DHT22;18338;53.240;8.798;2023-06-22T11:33:52;42.50;57.50
31765;DHT22;18338;53.240;8.798;2023-06-22T11:36:19;42.60;59.10
31765;DHT22;18338;53.240;8.798;2023-06-22T11:38:46;43.50;59.30
31765;DHT22;18338;53.240;8.798;2023-06-22T11:41:13;44.30;56.40
31765;DHT22;18338;53.240;8.798;2023-06-22T11:43:40;43.60;56.70
31765;DHT22;18338;53.240;8.798;2023-06-22T11:46:25;42.80;58.00
31765;DHT22;18338;53.240;8.798;2023-06-22T11:48:52;42.50;56.60
31765;DHT22;18338;53.240;8.798;2023-06-22T11:54:35;43.30;58.50
31765;DHT22;18338;53.240;8.798;2023-06-22T11:57:05;42.50;58.70
31765;DHT22;18338;53.240;8.798;2023-06-22T11:59:44;41.20;59.90
31765;DHT22;18338;53.240;8.798;2023-06-22T12:02:16;40.80;60.00
31765;DHT22;18338;53.240;8.798;2023-06-22T12:04:53;40.10;61.30
31765;DHT22;18338;53.240;8.798;2023-06-22T12:07:34;40.30;59.70
31765;DHT22;18338;53.240;8.798;2023-06-22T12:10:02;41.00;59.50
31765;DHT22;18338;53.240;8.798;2023-06-22T12:12:28;40.80;59.40
31765;DHT22;18338;53.240;8.798;2023-06-22T12:14:55;40.30;59.40
31765;DHT22;18338;53.240;8.798;2023-06-22T12:17:22;39.50;63.30
31765;DHT22;18338;53.240;8.798;2023-06-22T12:19:48;39.00;63.10
31765;DHT22;18338;53.240;8.798;2023-06-22T12:22:19;38.60;62.50
31765;DHT22;18338;53.240;8.798;2023-06-22T12:24:46;37.60;62.70
31765;DHT22;18338;53.240;8.798;2023-06-22T12:27:20;37.80;64.60
31765;DHT22;18338;53.240;8.798;2023-06-22T12:29:47;38.10;65.80
31765;DHT22;18338;53.240;8.798;2023-06-22T12:32:14;38.90;65.40
31765;DHT22;18338;53.240;8.798;2023-06-22T12:34:44;39.00;63.30
31765;DHT22;18338;53.240;8.798;2023-06-22T12:37:11;38.70;65.00
31765;DHT22;18338;53.240;8.798;2023-06-22T12:39:40;38.70;64.70
31765;DHT22;18338;53.240;8.798;2023-06-22T12:42:07;38.20;64.30
31765;DHT22;18338;53.240;8.798;2023-06-22T12:44:37;36.90;65.10
31765;DHT22;18338;53.240;8.798;2023-06-22T12:47:03;36.20;67.50
31765;DHT22;18338;53.240;8.798;2023-06-22T12:49:30;35.60;68.00
31765;DHT22;18338;53.240;8.798;2023-06-22T12:51:57;35.10;68.10
31765;DHT22;18338;53.240;8.798;2023-06-22T12:54:23;34.50;70.30
31765;DHT22;18338;53.240;8.798;2023-06-22T12:56:50;34.60;72.60
31765;DHT22;18338;53.240;8.798;2023-06-22T12:59:18;34.50;72.80
31765;DHT22;18338;53.240;8.798;2023-06-22T13:01:45;34.30;73.60
31765;DHT22;18338;53.240;8.798;2023-06-22T13:04:12;34.20;74.20
31765;DHT22;18338;53.240;8.798;2023-06-22T13:06:41;33.90;73.90
31765;DHT22;18338;53.240;8.798;2023-06-22T13:09:09;33.20;76.30
31765;DHT22;18338;53.240;8.798;2023-06-22T13:11:47;32.50;76.70
31765;DHT22;18338;53.240;8.798;2023-06-22T13:14:13;32.00;79.30
31765;DHT22;18338;53.240;8.798;2023-06-22T13:16:42;31.50;82.70
31765;DHT22;18338;53.240;8.798;2023-06-22T13:19:09;31.30;83.90
31765;DHT22;18338;53.240;8.798;2023-06-22T13:21:36;31.20;85.70
31765;DHT22;18338;53.240;8.798;2023-06-22T13:24:03;31.00;86.50
31765;DHT22;18338;53.240;8.798;2023-06-22T13:26:32;30.90;88.50
31765;DHT22;18338;53.240;8.798;2023-06-22T13:29:00;30.90;89.10
31765;DHT22;18338;53.240;8.798;2023-06-22T13:31:27;30.90;86.20
31765;DHT22;18338;53.240;8.798;2023-06-22T13:33:54;30.90;88.00
31765;DHT22;18338;53.240;8.798;2023-06-22T13:36:20;30.60;89.10
31765;DHT22;18338;53.240;8.798;2023-06-22T13:38:49;30.70;88.00
31765;DHT22;18338;53.240;8.798;2023-06-22T13:41:16;31.10;89.70
31765;DHT22;18338;53.240;8.798;2023-06-22T13:43:43;31.40;89.60
31765;DHT22;18338;53.240;8.798;2023-06-22T13:46:10;31.30;86.10
31765;DHT22;18338;53.240;8.798;2023-06-22T13:48:36;31.20;88.50
31765;DHT22;18338;53.240;8.798;2023-06-22T13:51:03;31.20;87.60
31765;DHT22;18338;53.240;8.798;2023-06-22T13:53:30;31.20;88.30
31765;DHT22;18338;53.240;8.798;2023-06-22T13:55:57;31.00;86.20
31765;DHT22;18338;53.240;8.798;2023-06-22T13:58:43;30.90;85.60
31765;DHT22;18338;53.240;8.798;2023-06-22T14:01:10;30.90;87.30
31765;DHT22;18338;53.240;8.798;2023-06-22T14:03:43;30.80;87.40
31765;DHT22;18338;53.240;8.798;2023-06-22T14:06:12;30.80;87.10
31765;DHT22;18338;53.240;8.798;2023-06-22T14:08:39;30.60;86.80
31765;DHT22;18338;53.240;8.798;2023-06-22T14:11:08;30.70;88.90
31765;DHT22;18338;53.240;8.798;2023-06-22T14:13:34;30.90;87.80
31765;DHT22;18338;53.240;8.798;2023-06-22T14:16:02;30.90;88.10
31765;DHT22;18338;53.240;8.798;2023-06-22T14:18:29;30.60;87.40
31765;DHT22;18338;53.240;8.798;2023-06-22T14:20:56;30.20;90.30
31765;DHT22;18338;53.240;8.798;2023-06-22T14:23:23;29.90;89.90
31765;DHT22;18338;53.240;8.798;2023-06-22T14:25:50;29.50;91.40
31765;DHT22;18338;53.240;8.798;2023-06-22T14:28:17;29.30;92.40
31765;DHT22;18338;53.240;8.798;2023-06-22T14:30:43;29.20;93.00
31765;DHT22;18338;53.240;8.798;2023-06-22T14:33:11;29.10;92.70
31765;DHT22;18338;53.240;8.798;2023-06-22T14:35:39;28.90;93.50
31765;DHT22;18338;53.240;8.798;2023-06-22T14:38:06;28.70;93.50
31765;DHT22;18338;53.240;8.798;2023-06-22T14:40:33;28.50;93.90
31765;DHT22;18338;53.240;8.798;2023-06-22T14:43:19;28.30;94.60
31765;DHT22;18338;53.240;8.798;2023-06-22T14:45:46;28.10;95.00
31765;DHT22;18338;53.240;8.798;2023-06-22T14:48:12;27.90;94.80
31765;DHT22;18338;53.240;8.798;2023-06-22T14:50:41;27.80;96.20
31765;DHT22;18338;53.240;8.798;2023-06-22T14:53:13;27.70;98.30
31765;DHT22;18338;53.240;8.798;2023-06-22T14:55:40;27.50;99.10
31765;DHT22;18338;53.240;8.798;2023-06-22T14:58:07;27.40;99.90
31765;DHT22;18338;53.240;8.798;2023-06-22T15:00:34;27.20;99.90
31765;DHT22;18338;53.240;8.798;2023-06-22T15:03:29;27.30;99.90
31765;DHT22;18338;53.240;8.798;2023-06-22T15:05:59;27.20;99.90
31765;DHT22;18338;53.240;8.798;2023-06-22T15:08:26;27.20;99.90
31765;DHT22;18338;53.240;8.798;2023-06-22T15:10:53;27.30;99.90
31765;DHT22;18338;53.240;8.798;2023-06-22T15:13:20;27.50;99.90
31765;DHT22;18338;53.240;8.798;2023-06-22T15:18:43;27.50;99.90
31765;DHT22;18338;53.240;8.798;2023-06-22T15:21:12;27.30;99.90
31765;DHT22;18338;53.240;8.798;2023-06-22T15:23:41;27.10;99.90
31765;DHT22;18338;53.240;8.798;2023-06-22T15:26:14;27.10;99.90
31765;DHT22;18338;53.240;8.798;2023-06-22T15:28:41;27.10;99.90
31765;DHT22;18338;53.240;8.798;2023-06-22T15:31:10;27.00;99.90
31765;DHT22;18338;53.240;8.798;2023-06-22T15:33:39;27.00;99.90
31765;DHT22;18338;53.240;8.798;2023-06-22T15:36:32;26.90;99.90
31765;DHT22;18338;53.240;8.798;2023-06-22T15:39:03;26.90;99.90
31765;DHT22;18338;53.240;8.798;2023-06-22T15:41:32;26.70;99.90
31765;DHT22;18338;53.240;8.798;2023-06-22T15:43:59;26.40;99.90
31765;DHT22;18338;53.240;8.798;2023-06-22T15:46:34;26.00;99.90
31765;DHT22;18338;53.240;8.798;2023-06-22T15:49:10;25.50;99.90
31765;DHT22;18338;53.240;8.798;2023-06-22T15:51:40;25.00;99.90